Time;durP1;ratioP1;P1;durP2;ratioP2;P2;SDS_P1;SDS_P2;PMS_P1;PMS_P2;Temp;Humidity;BMP_temperature;BMP_pressure;BME280_temperature;BME280_humidity;BME280_pressure;Samples;Min_cycle;Max_cycle;Signal;HPM_P1;HPM_P2
2024/05/05 00:01:15;;;;;;;1.03;1.03;;;12.10;99.90;;;;;;6529878;21;20275;-84
2024/05/05 00:03:43;;;;;;;3.10;1.23;;;12.10;99.90;;;;;;6484869;22;20265;-90
2024/05/05 00:06:09;;;;;;;1.30;1.20;;;12.20;99.90;;;;;;6486106;22;20265;-83
2024/05/05 00:08:43;;;;;;;1.17;1.17;;;12.20;99.90;;;;;;6531959;22;20216;-87
2024/05/05 00:11:11;;;;;;;1.20;1.10;;;12.30;99.90;;;;;;6531742;22;20301;-88
2024/05/05 00:13:37;;;;;;;4.07;1.40;;;12.40;99.90;;;;;;6486845;22;20328;-88
2024/05/05 00:16:06;;;;;;;1.57;1.30;;;12.70;99.90;;;;;;6487070;22;20246;-90
2024/05/05 00:18:35;;;;;;;1.23;1.07;;;12.40;99.90;;;;;;6486744;22;20340;-87
2024/05/05 00:21:03;;;;;;;2.10;0.90;;;13.40;99.90;;;;;;6486912;22;20231;-82
2024/05/05 00:23:32;;;;;;;1.10;1.00;;;12.50;99.90;;;;;;6486994;22;20231;-87
2024/05/05 00:26:03;;;;;;;1.30;1.20;;;12.40;99.90;;;;;;6531989;22;20218;-83
2024/05/05 00:28:31;;;;;;;2.40;1.00;;;12.50;99.90;;;;;;6487007;22;20318;-82
2024/05/05 00:31:00;;;;;;;1.00;1.00;;;12.40;99.90;;;;;;6486658;22;20273;-82
2024/05/05 00:33:28;;;;;;;3.50;1.27;;;12.60;99.90;;;;;;6486521;22;20275;-83
2024/05/05 00:35:57;;;;;;;1.10;1.00;;;12.60;99.90;;;;;;6531544;22;20216;-83
2024/05/05 00:38:25;;;;;;;1.67;0.80;;;12.60;99.90;;;;;;6531378;22;20258;-82
2024/05/05 00:40:54;;;;;;;1.60;1.10;;;12.60;99.90;;;;;;6531503;22;20220;-83
2024/05/05 00:43:25;;;;;;;3.73;1.10;;;12.60;99.90;;;;;;6532001;22;20219;-83
2024/05/05 00:45:54;;;;;;;1.00;0.90;;;12.50;99.90;;;;;;6531744;22;20269;-83
2024/05/05 00:48:23;;;;;;;2.10;1.00;;;12.60;99.90;;;;;;6531852;22;20216;-84
2024/05/05 00:50:52;;;;;;;1.00;0.90;;;12.70;99.90;;;;;;6486605;22;20313;-83
2024/05/05 00:53:22;;;;;;;0.80;0.80;;;13.20;99.90;;;;;;6486518;22;20231;-83
2024/05/05 00:55:53;;;;;;;1.53;0.90;;;12.80;99.90;;;;;;6531318;22;20232;-83
2024/05/05 00:58:25;;;;;;;2.70;0.87;;;12.80;99.90;;;;;;6531699;22;20220;-83
2024/05/05 01:00:54;;;;;;;0.83;0.70;;;12.80;99.90;;;;;;6486591;22;20240;-83
2024/05/05 01:03:22;;;;;;;2.53;0.97;;;12.90;99.90;;;;;;6531471;22;20216;-82
2024/05/05 01:05:51;;;;;;;1.07;0.90;;;12.80;99.90;;;;;;6531689;22;20216;-82
2024/05/05 01:08:19;;;;;;;0.90;0.90;;;12.80;99.90;;;;;;6531282;22;20220;-82
2024/05/05 01:10:48;;;;;;;1.53;0.90;;;12.80;99.90;;;;;;6531738;22;20280;-83
2024/05/05 01:13:18;;;;;;;0.97;0.93;;;12.80;99.90;;;;;;6531416;22;20216;-83
2024/05/05 01:15:49;;;;;;;1.20;1.00;;;12.80;99.90;;;;;;6531210;22;20224;-83
2024/05/05 01:18:18;;;;;;;2.67;0.87;;;12.80;99.90;;;;;;6530661;22;20271;-83
2024/05/05 01:20:46;;;;;;;2.40;0.90;;;12.90;99.90;;;;;;6531248;22;20253;-83
2024/05/05 01:23:18;;;;;;;0.70;0.70;;;12.90;99.90;;;;;;6531291;22;20224;-83
2024/05/05 01:25:46;;;;;;;1.10;0.80;;;12.80;99.90;;;;;;6531801;22;20216;-82
2024/05/05 01:28:15;;;;;;;1.67;0.90;;;12.60;99.90;;;;;;6486803;22;20322;-83
2024/05/05 01:30:43;;;;;;;1.67;1.03;;;12.60;99.90;;;;;;6486115;22;20258;-83
2024/05/05 01:33:12;;;;;;;0.90;0.90;;;12.50;99.90;;;;;;6531352;22;20329;-83
2024/05/05 01:35:43;;;;;;;3.73;1.07;;;12.40;99.90;;;;;;6486140;22;20232;-84
2024/05/05 01:38:11;;;;;;;1.27;0.97;;;12.40;99.90;;;;;;6486302;22;20228;-84
2024/05/05 01:40:43;;;;;;;1.33;1.10;;;12.40;99.90;;;;;;6531399;22;20249;-84
2024/05/05 01:43:11;;;;;;;1.00;0.90;;;12.30;99.90;;;;;;6532241;22;20216;-83
2024/05/05 01:45:40;;;;;;;0.97;0.90;;;12.30;99.90;;;;;;6533013;22;20267;-82
2024/05/05 01:48:09;;;;;;;1.73;0.93;;;12.20;99.90;;;;;;6487156;22;20263;-82
2024/05/05 01:50:37;;;;;;;2.50;0.90;;;12.30;99.90;;;;;;6487328;22;20228;-82
2024/05/05 01:53:07;;;;;;;1.47;1.00;;;12.20;99.90;;;;;;6538814;22;20220;-82
2024/05/05 01:55:35;;;;;;;1.10;1.00;;;12.20;99.90;;;;;;6533543;22;20228;-82
2024/05/05 01:58:06;;;;;;;3.57;1.00;;;12.20;99.90;;;;;;6486335;22;20232;-82
2024/05/05 02:00:35;;;;;;;1.30;0.83;;;12.30;99.90;;;;;;6531495;21;20231;-82
2024/05/05 02:03:04;;;;;;;1.03;0.90;;;12.90;99.90;;;;;;6486214;22;20228;-82
2024/05/05 02:05:32;;;;;;;1.63;1.00;;;12.20;99.90;;;;;;6530859;22;20216;-82
2024/05/05 02:08:00;;;;;;;3.07;0.80;;;12.20;99.90;;;;;;6530526;22;20271;-82
2024/05/05 02:10:29;;;;;;;1.10;1.00;;;12.30;99.90;;;;;;6486028;22;20235;-82
2024/05/05 02:12:58;;;;;;;0.97;0.90;;;12.20;99.90;;;;;;6530595;22;20258;-83
2024/05/05 02:15:29;;;;;;;0.90;0.90;;;13.60;99.90;;;;;;6530719;22;20216;-82
2024/05/05 02:17:58;;;;;;;2.30;0.90;;;12.20;99.90;;;;;;6531315;22;20255;-81
2024/05/05 02:20:26;;;;;;;1.70;0.93;;;12.20;99.90;;;;;;6487012;22;20328;-82
2024/05/05 02:22:55;;;;;;;1.00;1.00;;;12.50;99.90;;;;;;6488091;22;20267;-82
2024/05/05 02:25:23;;;;;;;1.10;1.10;;;12.20;99.90;;;;;;6487250;22;20251;-81
2024/05/05 02:27:52;;;;;;;1.20;1.10;;;12.30;99.90;;;;;;6486516;22;20270;-81
2024/05/05 02:30:20;;;;;;;2.40;1.60;;;13.60;99.90;;;;;;6532044;22;20216;-81
2024/05/05 02:32:52;;;;;;;1.40;1.30;;;11.70;99.90;;;;;;6486727;22;20228;-82
2024/05/05 02:35:20;;;;;;;0.97;0.97;;;12.90;99.90;;;;;;6530669;22;20316;-82
2024/05/05 02:37:49;;;;;;;1.23;1.10;;;12.20;99.90;;;;;;6530714;22;20216;-83
2024/05/05 02:40:17;;;;;;;1.00;1.00;;;11.90;99.90;;;;;;6485382;22;20232;-83
2024/05/05 02:42:46;;;;;;;1.77;1.37;;;13.50;99.90;;;;;;6530386;22;20220;-83
2024/05/05 02:45:15;;;;;;;1.27;0.90;;;12.20;99.90;;;;;;6530290;22;20219;-84
2024/05/05 02:47:43;;;;;;;1.00;0.90;;;12.40;99.90;;;;;;6530522;22;20220;-81
2024/05/05 02:50:14;;;;;;;0.80;0.80;;;12.10;99.90;;;;;;6485358;22;20259;-83
2024/05/05 02:52:43;;;;;;;1.17;1.00;;;12.20;99.90;;;;;;6530497;22;20216;-83
2024/05/05 02:55:15;;;;;;;0.93;0.90;;;13.20;99.90;;;;;;6485051;22;20231;-83
2024/05/05 02:57:45;;;;;;;1.17;1.10;;;12.20;99.90;;;;;;6530782;22;20215;-83
2024/05/05 03:00:14;;;;;;;1.13;1.03;;;12.00;99.90;;;;;;6529836;21;20216;-83
2024/05/05 03:02:44;;;;;;;2.57;1.27;;;12.00;99.90;;;;;;6485371;22;20231;-82
2024/05/05 03:05:15;;;;;;;1.30;1.20;;;12.10;99.90;;;;;;6530119;22;20268;-82
2024/05/05 03:07:43;;;;;;;1.60;1.50;;;12.00;99.90;;;;;;6485409;22;20256;-82
2024/05/05 03:10:12;;;;;;;1.63;1.40;;;11.90;99.90;;;;;;6485161;22;20290;-83
2024/05/05 03:12:44;;;;;;;1.63;1.53;;;11.90;99.90;;;;;;6485434;22;20262;-83
2024/05/05 03:15:13;;;;;;;1.40;1.30;;;11.90;99.90;;;;;;6485139;22;20228;-82
2024/05/05 03:17:44;;;;;;;1.60;1.50;;;11.90;99.90;;;;;;6485363;22;20274;-83
2024/05/05 03:20:15;;;;;;;2.23;1.50;;;11.90;99.90;;;;;;6485207;22;20227;-83
2024/05/05 03:22:46;;;;;;;1.70;1.60;;;11.80;99.90;;;;;;6485582;22;20266;-83
2024/05/05 03:25:15;;;;;;;1.70;1.60;;;11.80;99.90;;;;;;6530896;22;20255;-83
2024/05/05 03:27:44;;;;;;;2.50;1.73;;;11.70;99.90;;;;;;6529688;22;20216;-83
2024/05/05 03:30:18;;;;;;;2.13;1.80;;;11.70;99.90;;;;;;6529599;22;20258;-83
2024/05/05 03:32:46;;;;;;;4.43;1.70;;;11.80;99.90;;;;;;6485233;22;20261;-83
2024/05/05 03:35:17;;;;;;;1.83;1.60;;;11.80;99.90;;;;;;6530089;22;20255;-82
2024/05/05 03:37:46;;;;;;;2.33;1.77;;;11.80;99.90;;;;;;6529826;22;20326;-83
2024/05/05 03:40:15;;;;;;;3.10;1.73;;;11.90;99.90;;;;;;6527677;22;20228;-83
2024/05/05 03:42:44;;;;;;;2.83;1.60;;;11.90;99.90;;;;;;6529771;22;20258;-83
2024/05/05 03:45:12;;;;;;;2.47;1.90;;;11.80;99.90;;;;;;6530079;22;20216;-83
2024/05/05 03:47:41;;;;;;;2.60;1.60;;;11.90;99.90;;;;;;6484879;22;20239;-82
2024/05/05 03:50:09;;;;;;;1.80;1.70;;;11.90;99.90;;;;;;6529802;22;20270;-83
2024/05/05 03:52:40;;;;;;;1.63;1.53;;;11.90;99.90;;;;;;6530063;22;20267;-83
2024/05/05 03:55:09;;;;;;;1.77;1.33;;;11.90;99.90;;;;;;6483998;22;20231;-83
2024/05/05 03:57:37;;;;;;;2.90;1.73;;;11.90;99.90;;;;;;6529767;22;20258;-83
2024/05/05 04:00:07;;;;;;;1.73;1.63;;;11.90;99.90;;;;;;6484457;21;20228;-83
2024/05/05 04:02:35;;;;;;;2.00;1.67;;;12.00;99.90;;;;;;6484917;22;20223;-83
2024/05/05 04:05:04;;;;;;;2.23;1.60;;;11.90;99.90;;;;;;6529435;22;20220;-83
2024/05/05 04:07:33;;;;;;;1.63;1.30;;;11.90;99.90;;;;;;6484698;22;20231;-83
2024/05/05 04:10:05;;;;;;;2.77;1.30;;;11.90;99.90;;;;;;6484544;22;20271;-82
2024/05/05 04:12:33;;;;;;;1.70;1.60;;;11.90;99.90;;;;;;6529532;22;20220;-82
2024/05/05 04:15:02;;;;;;;1.87;1.60;;;11.90;99.90;;;;;;6529365;22;20223;-83
2024/05/05 04:17:30;;;;;;;1.60;1.50;;;11.80;99.90;;;;;;6529933;22;20224;-83
2024/05/05 04:19:59;;;;;;;1.53;1.43;;;11.90;99.90;;;;;;6484784;22;20244;-82
2024/05/05 04:22:27;;;;;;;1.30;1.20;;;11.80;99.90;;;;;;6484773;22;20233;-82
2024/05/05 04:24:56;;;;;;;2.63;1.43;;;11.80;99.90;;;;;;6529491;22;20216;-83
2024/05/05 04:27:27;;;;;;;1.90;1.30;;;11.70;99.90;;;;;;6529881;22;20256;-82
2024/05/05 04:29:55;;;;;;;1.53;1.30;;;11.70;99.90;;;;;;6484959;22;20255;-82
2024/05/05 04:32:24;;;;;;;1.20;1.10;;;11.60;99.90;;;;;;6529424;22;20216;-83
2024/05/05 04:34:52;;;;;;;1.33;1.23;;;11.60;99.90;;;;;;6484642;22;20234;-83
2024/05/05 04:37:21;;;;;;;1.30;1.20;;;11.60;99.90;;;;;;6530089;22;20217;-82
2024/05/05 04:39:49;;;;;;;1.40;1.30;;;11.50;99.90;;;;;;6484563;22;20281;-82
2024/05/05 04:42:18;;;;;;;1.63;1.43;;;11.50;99.90;;;;;;6484473;22;20235;-83
2024/05/05 04:44:49;;;;;;;1.50;1.40;;;11.50;99.90;;;;;;6529894;22;20262;-83
2024/05/05 04:47:17;;;;;;;1.60;1.50;;;11.70;99.90;;;;;;6529585;22;20216;-82
2024/05/05 04:49:46;;;;;;;1.73;1.33;;;11.60;99.90;;;;;;6484806;22;20235;-82
2024/05/05 04:52:15;;;;;;;2.53;1.30;;;11.60;99.90;;;;;;6485599;22;20234;-82
2024/05/05 04:54:43;;;;;;;1.60;1.50;;;11.60;99.90;;;;;;6486356;22;20232;-83
2024/05/05 04:57:12;;;;;;;1.83;1.60;;;11.50;99.90;;;;;;6486577;22;20239;-82
2024/05/05 04:59:40;;;;;;;2.40;1.50;;;11.50;99.90;;;;;;6531321;22;20266;-82
2024/05/05 05:02:12;;;;;;;1.40;1.30;;;11.40;99.90;;;;;;6530602;21;20278;-82
2024/05/05 05:04:40;;;;;;;1.30;1.20;;;11.40;99.90;;;;;;6531862;22;20218;-82
2024/05/05 05:07:09;;;;;;;1.77;1.37;;;11.40;99.90;;;;;;6486360;22;20231;-82
2024/05/05 05:09:37;;;;;;;10.33;1.60;;;11.40;99.90;;;;;;6531235;22;20219;-82
2024/05/05 05:12:06;;;;;;;1.60;1.50;;;11.40;99.90;;;;;;6486531;22;20263;-82
2024/05/05 05:14:35;;;;;;;1.30;1.20;;;11.70;99.90;;;;;;6531379;22;20219;-82
2024/05/05 05:17:03;;;;;;;2.63;1.20;;;11.70;99.90;;;;;;6531358;22;20222;-82
2024/05/05 05:19:34;;;;;;;1.30;1.20;;;11.80;99.90;;;;;;6531242;22;20215;-82
2024/05/05 05:22:03;;;;;;;1.40;1.30;;;11.70;99.90;;;;;;6531282;22;20267;-82
2024/05/05 05:24:31;;;;;;;1.67;1.57;;;11.80;99.90;;;;;;6531103;22;20269;-82
2024/05/05 05:26:57;;;;;;;1.20;1.10;;;12.10;99.90;;;;;;6531165;22;20262;-82
2024/05/05 05:29:26;;;;;;;1.27;1.20;;;12.10;99.90;;;;;;6531092;22;20259;-82
2024/05/05 05:31:54;;;;;;;1.30;1.20;;;12.10;99.90;;;;;;6486381;22;20266;-82
2024/05/05 05:34:23;;;;;;;1.10;1.00;;;12.30;99.90;;;;;;6486190;22;20262;-81
2024/05/05 05:36:54;;;;;;;1.63;1.10;;;12.20;99.90;;;;;;6486195;22;20228;-82
2024/05/05 05:39:22;;;;;;;1.20;1.10;;;12.20;99.90;;;;;;6530999;22;20221;-82
2024/05/05 05:41:51;;;;;;;0.97;0.90;;;12.20;99.90;;;;;;6485256;22;20297;-82
2024/05/05 05:44:19;;;;;;;0.87;0.87;;;12.20;99.90;;;;;;6486089;22;20228;-82
2024/05/05 05:46:48;;;;;;;2.60;0.90;;;12.10;99.90;;;;;;6530881;22;20216;-82
2024/05/05 05:49:17;;;;;;;0.83;0.83;;;12.10;99.90;;;;;;6530949;22;20228;-82
2024/05/05 05:51:45;;;;;;;1.00;0.90;;;11.90;99.90;;;;;;6530750;22;20246;-82
2024/05/05 05:54:17;;;;;;;1.07;0.97;;;12.20;99.90;;;;;;6531042;22;20216;-82
2024/05/05 05:56:45;;;;;;;1.30;1.13;;;12.20;99.90;;;;;;6485944;22;20282;-82
2024/05/05 05:59:14;;;;;;;1.30;0.90;;;12.30;99.90;;;;;;6485638;22;20263;-82
2024/05/05 06:01:42;;;;;;;1.20;1.00;;;12.50;99.90;;;;;;6545911;21;20253;-82
2024/05/05 06:04:11;;;;;;;0.90;0.90;;;12.40;99.90;;;;;;6582708;21;20218;-82
2024/05/05 06:06:39;;;;;;;1.57;0.90;;;12.20;99.90;;;;;;6583097;21;20215;-84
2024/05/05 06:09:08;;;;;;;1.33;1.00;;;12.40;99.90;;;;;;6583192;21;20253;-83
2024/05/05 06:11:39;;;;;;;1.17;0.90;;;12.30;99.90;;;;;;6580889;21;20269;-83
2024/05/05 06:14:07;;;;;;;0.90;0.90;;;12.20;99.90;;;;;;6583173;21;20215;-84
2024/05/05 06:16:36;;;;;;;1.47;0.80;;;12.30;99.90;;;;;;6583014;21;20215;-83
2024/05/05 06:19:04;;;;;;;0.73;0.73;;;12.50;99.90;;;;;;6582772;21;20254;-84
2024/05/05 06:21:33;;;;;;;0.70;0.70;;;12.60;99.90;;;;;;6582751;21;20259;-83
2024/05/05 06:24:01;;;;;;;0.80;0.80;;;12.80;99.90;;;;;;6580544;21;20227;-84
2024/05/05 06:26:30;;;;;;;0.80;0.73;;;12.80;99.90;;;;;;6582942;21;20215;-84
2024/05/05 06:29:01;;;;;;;1.00;0.70;;;13.00;99.90;;;;;;6583226;21;20219;-84
2024/05/05 06:31:30;;;;;;;1.57;0.80;;;12.70;99.90;;;;;;6580580;21;20286;-84
2024/05/05 06:33:58;;;;;;;0.60;0.60;;;13.10;99.90;;;;;;6582706;21;20218;-84
2024/05/05 06:36:27;;;;;;;0.83;0.67;;;13.00;99.90;;;;;;6583143;21;20306;-84
2024/05/05 06:38:55;;;;;;;1.40;0.73;;;13.20;99.90;;;;;;6580853;21;20297;-84
2024/05/05 06:41:24;;;;;;;0.90;0.67;;;13.40;99.90;;;;;;6580540;21;20273;-84
2024/05/05 06:43:54;;;;;;;1.23;0.67;;;13.40;99.90;;;;;;6582650;21;20215;-84
2024/05/05 06:46:25;;;;;;;0.93;0.70;;;13.40;99.90;;;;;;6582283;21;20215;-84
2024/05/05 06:48:54;;;;;;;0.60;0.60;;;13.30;99.90;;;;;;6580643;21;20230;-84
2024/05/05 06:51:24;;;;;;;1.17;0.80;;;13.30;99.90;;;;;;6582554;21;20246;-84
2024/05/05 06:53:52;;;;;;;0.63;0.63;;;12.80;99.90;;;;;;6580391;21;20262;-84
2024/05/05 06:56:21;;;;;;;1.10;0.60;;;13.10;99.90;;;;;;6581246;21;20227;-84
2024/05/05 06:58:49;;;;;;;0.67;0.67;;;13.10;99.90;;;;;;6580486;21;20260;-84
2024/05/05 07:01:18;;;;;;;1.83;0.60;;;13.00;99.90;;;;;;6579867;21;20251;-84
2024/05/05 07:03:51;;;;;;;0.50;0.50;;;12.90;99.90;;;;;;6580461;21;20226;-83
2024/05/05 07:06:20;;;;;;;2.60;0.60;;;12.80;99.90;;;;;;6580406;21;20226;-84
2024/05/05 07:08:48;;;;;;;2.53;0.70;;;12.80;99.90;;;;;;6582392;21;20257;-84
2024/05/05 07:11:17;;;;;;;0.80;0.80;;;13.00;99.90;;;;;;6582771;21;20325;-84
2024/05/05 07:13:45;;;;;;;0.60;0.60;;;13.30;99.90;;;;;;6582474;21;20265;-84
2024/05/05 07:16:14;;;;;;;1.17;0.50;;;13.60;99.90;;;;;;6581767;21;20215;-84
2024/05/05 07:18:42;;;;;;;0.60;0.50;;;13.70;99.90;;;;;;6582669;21;20215;-84
2024/05/05 07:21:14;;;;;;;0.60;0.50;;;13.90;99.90;;;;;;6582396;21;20215;-85
2024/05/05 07:23:42;;;;;;;0.50;0.50;;;13.90;99.90;;;;;;6580216;21;20254;-82
2024/05/05 07:26:11;;;;;;;0.60;0.60;;;13.70;99.90;;;;;;6582547;21;20261;-81
2024/05/05 07:28:39;;;;;;;0.50;0.50;;;13.60;99.90;;;;;;6582382;21;20249;-83
2024/05/05 07:31:08;;;;;;;0.60;0.53;;;13.90;99.90;;;;;;6580043;21;20226;-83
2024/05/05 07:33:36;;;;;;;0.87;0.63;;;13.80;99.90;;;;;;6580166;21;20230;-83
2024/05/05 07:36:06;;;;;;;0.60;0.60;;;13.80;99.90;;;;;;6582425;21;20262;-83
2024/05/05 07:38:37;;;;;;;0.60;0.50;;;14.20;99.90;;;;;;6582062;21;20215;-83
2024/05/05 07:41:06;;;;;;;0.60;0.60;;;13.90;99.90;;;;;;6579850;21;20230;-83
2024/05/05 07:43:36;;;;;;;0.40;0.40;;;13.40;99.90;;;;;;6582041;21;20215;-83
2024/05/05 07:46:05;;;;;;;0.53;0.50;;;13.30;99.90;;;;;;6582112;21;20286;-83
2024/05/05 07:48:34;;;;;;;1.13;0.50;;;13.40;99.90;;;;;;6579467;21;20248;-83
2024/05/05 07:51:02;;;;;;;0.30;0.30;;;13.30;99.90;;;;;;6580257;21;20262;-83
2024/05/05 07:53:31;;;;;;;0.97;0.87;;;14.00;99.90;;;;;;6582101;21;20215;-83
2024/05/05 07:56:02;;;;;;;0.93;0.47;;;14.40;99.90;;;;;;6579855;21;20286;-83
2024/05/05 07:58:30;;;;;;;0.30;0.30;;;15.00;99.90;;;;;;6582210;21;20266;-83
2024/05/05 08:00:59;;;;;;;0.50;0.50;;;14.50;99.90;;;;;;6579844;21;20238;-83
2024/05/05 08:03:27;;;;;;;1.63;0.40;;;14.50;99.90;;;;;;6581707;21;20215;-83
2024/05/05 08:05:56;;;;;;;2.00;0.40;;;14.10;99.90;;;;;;6581883;21;20265;-84
2024/05/05 08:08:24;;;;;;;0.50;0.40;;;14.30;99.90;;;;;;6579772;21;20230;-83
2024/05/05 08:10:53;;;;;;;0.40;0.40;;;14.00;99.90;;;;;;6580053;21;20227;-84
2024/05/05 08:13:25;;;;;;;0.30;0.30;;;14.20;99.90;;;;;;6581848;21;20269;-84
2024/05/05 08:15:54;;;;;;;0.30;0.30;;;14.50;99.90;;;;;;6579858;21;20261;-83
2024/05/05 08:18:22;;;;;;;0.87;0.40;;;14.20;99.90;;;;;;6581979;21;20215;-83
2024/05/05 08:20:51;;;;;;;0.30;0.30;;;13.80;99.90;;;;;;6579874;21;20230;-84
2024/05/05 08:23:19;;;;;;;0.83;0.40;;;14.10;99.90;;;;;;6582280;21;20261;-83
2024/05/05 08:25:48;;;;;;;0.37;0.37;;;14.10;99.90;;;;;;6579219;21;20250;-83
2024/05/05 08:28:16;;;;;;;0.57;0.40;;;14.90;99.90;;;;;;6582195;21;20273;-83
2024/05/05 08:30:47;;;;;;;0.43;0.30;;;15.80;99.90;;;;;;6581848;21;20231;-84
2024/05/05 08:33:16;;;;;;;0.87;0.30;;;15.60;99.90;;;;;;6581862;21;20227;-83
2024/05/05 08:35:44;;;;;;;0.30;0.30;;;15.30;99.90;;;;;;6584023;21;20211;-83
2024/05/05 08:38:13;;;;;;;0.90;0.30;;;15.70;99.90;;;;;;6584189;21;20214;-83
2024/05/05 08:40:42;;;;;;;0.40;0.30;;;15.50;99.90;;;;;;6583798;21;20221;-83
2024/05/05 08:43:12;;;;;;;0.30;0.30;;;14.90;99.90;;;;;;6583920;21;20215;-84
2024/05/05 08:45:42;;;;;;;0.27;0.27;;;14.70;99.90;;;;;;6581882;21;20321;-83
2024/05/05 08:48:13;;;;;;;0.30;0.30;;;15.00;99.90;;;;;;6584553;21;20257;-83
2024/05/05 08:50:43;;;;;;;0.80;0.27;;;15.00;99.90;;;;;;6584307;21;20222;-84
2024/05/05 08:53:11;;;;;;;1.30;0.40;;;15.20;99.90;;;;;;6581642;21;20231;-83
2024/05/05 08:55:42;;;;;;;0.20;0.20;;;15.10;99.90;;;;;;6581499;21;20347;-83
2024/05/05 08:58:12;;;;;;;0.20;0.20;;;14.70;99.90;;;;;;6583792;21;20265;-83
2024/05/05 09:00:41;;;;;;;0.40;0.33;;;15.40;99.90;;;;;;6571334;21;20228;-83
2024/05/05 09:03:15;;;;;;;0.30;0.30;;;15.50;99.90;;;;;;6531858;22;20263;-83
2024/05/05 09:05:47;;;;;;;0.20;0.20;;;15.90;99.90;;;;;;6531808;22;20223;-83
2024/05/05 09:08:15;;;;;;;0.37;0.30;;;16.10;99.90;;;;;;6486413;22;20271;-82
2024/05/05 09:10:44;;;;;;;0.30;0.30;;;16.00;99.90;;;;;;6486471;22;20224;-84
2024/05/05 09:13:14;;;;;;;0.40;0.40;;;16.10;99.90;;;;;;6486648;22;20328;-84
2024/05/05 09:15:43;;;;;;;0.47;0.37;;;17.10;99.90;;;;;;6531238;22;20264;-84
2024/05/05 09:18:16;;;;;;;2.47;0.33;;;17.20;99.90;;;;;;6531305;22;20220;-84
2024/05/05 09:20:45;;;;;;;0.30;0.30;;;16.90;99.90;;;;;;6531167;22;20216;-84
2024/05/05 09:23:13;;;;;;;0.53;0.27;;;16.70;99.90;;;;;;6486603;22;20231;-84
2024/05/05 09:25:43;;;;;;;0.37;0.20;;;17.50;99.90;;;;;;6486267;22;20332;-84
2024/05/05 09:28:12;;;;;;;0.20;0.20;;;18.10;99.90;;;;;;6486335;22;20231;-84
2024/05/05 09:30:41;;;;;;;0.20;0.20;;;17.40;99.90;;;;;;6531108;22;20217;-83
2024/05/05 09:33:12;;;;;;;0.20;0.20;;;17.00;99.90;;;;;;6486378;22;20294;-84
2024/05/05 09:35:44;;;;;;;0.20;0.20;;;17.60;99.90;;;;;;6486055;22;20231;-83
2024/05/05 09:38:14;;;;;;;1.70;0.20;;;17.20;99.90;;;;;;6530480;22;20216;-84
2024/05/05 09:40:43;;;;;;;2.33;0.20;;;18.10;99.90;;;;;;6486241;22;20247;-83
2024/05/05 09:43:12;;;;;;;0.30;0.30;;;17.90;99.90;;;;;;6530948;22;20227;-84
2024/05/05 09:45:40;;;;;;;0.60;0.30;;;18.50;99.90;;;;;;6530808;22;20228;-84
2024/05/05 09:48:13;;;;;;;1.13;0.30;;;17.80;99.90;;;;;;6530989;22;20228;-82
2024/05/05 09:50:50;;;;;;;0.50;0.30;;;16.40;99.90;;;;;;6486314;22;20296;-82
2024/05/05 09:53:25;;;;;;;1.37;0.30;;;16.10;99.90;;;;;;6531002;22;20255;-83
2024/05/05 09:56:05;;;;;;;0.40;0.30;;;17.00;99.90;;;;;;6531063;22;20227;-83
2024/05/05 09:58:41;;;;;;;0.87;0.40;;;16.60;99.90;;;;;;6485971;22;20236;-82
2024/05/05 10:01:10;;;;;;;0.33;0.30;;;16.30;99.90;;;;;;6530399;21;20270;-83
2024/05/05 10:03:40;;;;;;;1.10;1.00;;;15.70;99.90;;;;;;6530602;22;20216;-83
2024/05/05 10:06:11;;;;;;;0.30;0.30;;;15.90;99.90;;;;;;6485904;22;20274;-83
2024/05/05 10:08:47;;;;;;;1.60;0.40;;;15.60;99.90;;;;;;6530931;22;20267;-83
2024/05/05 10:11:16;;;;;;;2.20;0.43;;;15.50;99.90;;;;;;6485798;22;20227;-83
2024/05/05 10:13:44;;;;;;;0.70;0.40;;;15.60;99.90;;;;;;6530777;22;20357;-83
2024/05/05 10:16:13;;;;;;;0.53;0.47;;;15.40;99.90;;;;;;6485417;22;20270;-83
2024/05/05 10:18:48;;;;;;;0.70;0.30;;;16.20;99.90;;;;;;6530406;22;20212;-82
2024/05/05 10:21:21;;;;;;;1.50;0.30;;;18.00;99.90;;;;;;6485714;22;20223;-83
2024/05/05 10:23:50;;;;;;;1.63;0.43;;;18.50;99.90;;;;;;6530579;22;20259;-84
2024/05/05 10:26:19;;;;;;;0.30;0.20;;;19.40;99.90;;;;;;6530363;22;20266;-83
2024/05/05 10:28:48;;;;;;;0.20;0.20;;;18.10;99.90;;;;;;6530811;22;20280;-83
2024/05/05 10:31:22;;;;;;;0.47;0.20;;;19.00;99.90;;;;;;6530197;22;20247;-84
2024/05/05 10:33:52;;;;;;;2.40;0.40;;;19.50;99.90;;;;;;6530875;22;20215;-83
2024/05/05 10:36:24;;;;;;;0.20;0.20;;;18.90;99.90;;;;;;6485706;22;20231;-84
2024/05/05 10:38:53;;;;;;;0.40;0.20;;;18.90;99.90;;;;;;6530523;22;20255;-83
2024/05/05 10:41:21;;;;;;;1.93;0.30;;;19.50;99.90;;;;;;6485385;22;20321;-84
2024/05/05 10:43:49;;;;;;;1.57;0.20;;;20.50;99.90;;;;;;6530538;22;20216;-83
2024/05/05 10:46:20;;;;;;;0.20;0.20;;;19.80;99.90;;;;;;6530389;22;20251;-84
2024/05/05 10:48:49;;;;;;;0.73;0.40;;;18.70;99.90;;;;;;6530193;22;20216;-84
2024/05/05 10:51:18;;;;;;;0.23;0.20;;;17.90;99.90;;;;;;6530589;22;20216;-83
2024/05/05 10:53:50;;;;;;;0.20;0.20;;;17.60;99.90;;;;;;6485528;22;20283;-83
2024/05/05 10:56:20;;;;;;;0.87;0.30;;;17.10;99.90;;;;;;6485344;22;20270;-83
2024/05/05 10:58:50;;;;;;;2.57;0.43;;;16.70;99.90;;;;;;6530493;22;20219;-83
2024/05/05 11:01:19;;;;;;;0.73;0.30;;;17.50;99.90;;;;;;6530222;21;20274;-83
2024/05/05 11:03:48;;;;;;;0.30;0.30;;;17.90;99.90;;;;;;6485352;22;20262;-83
2024/05/05 11:06:18;;;;;;;0.40;0.40;;;18.70;99.90;;;;;;6529901;22;20286;-83
2024/05/05 11:08:50;;;;;;;0.30;0.27;;;19.70;99.90;;;;;;6485432;22;20232;-83
2024/05/05 11:11:20;;;;;;;2.77;0.30;;;19.00;99.90;;;;;;6485147;22;20258;-84
2024/05/05 11:13:49;;;;;;;0.93;0.30;;;19.50;99.90;;;;;;6530443;22;20255;-83
2024/05/05 11:16:18;;;;;;;0.30;0.30;;;18.40;99.90;;;;;;6530210;22;20266;-83
2024/05/05 11:18:49;;;;;;;1.53;0.30;;;17.40;99.90;;;;;;6529872;22;20215;-83
2024/05/05 11:21:19;;;;;;;0.53;0.30;;;18.20;99.90;;;;;;6530013;22;20272;-84
2024/05/05 11:23:58;;;;;;;0.20;0.20;;;19.70;99.90;;;;;;6529893;22;20216;-83
2024/05/05 11:26:27;;;;;;;2.37;0.87;;;20.00;99.90;;;;;;6485426;22;20262;-84
2024/05/05 11:28:56;;;;;;;1.20;0.37;;;19.70;99.90;;;;;;6530075;22;20254;-84
2024/05/05 11:31:25;;;;;;;0.30;0.30;;;19.70;99.90;;;;;;6529804;22;20216;-84
2024/05/05 11:33:55;;;;;;;0.20;0.20;;;20.00;99.90;;;;;;6484979;22;20231;-83
2024/05/05 11:36:23;;;;;;;0.20;0.20;;;19.70;99.90;;;;;;6484702;22;20232;-84
2024/05/05 11:38:54;;;;;;;0.23;0.23;;;19.20;99.90;;;;;;6530266;22;20215;-84
2024/05/05 11:41:23;;;;;;;0.77;0.23;;;18.70;99.90;;;;;;6485047;22;20232;-84
2024/05/05 11:44:19;;;;;;;2.77;0.37;;;20.00;99.90;;;;;;6484786;22;20232;-84
2024/05/05 11:47:35;;;;;;;0.97;0.40;;;19.90;99.90;;;;;;6456151;22;20359;-84
2024/05/05 11:50:41;;;;;;;0.40;0.40;;;19.80;99.90;;;;;;6529976;22;20216;-84
2024/05/05 11:53:14;;;;;;;0.30;0.30;;;20.00;99.90;;;;;;6484777;22;20274;-84
2024/05/05 11:55:42;;;;;;;0.30;0.30;;;20.50;99.90;;;;;;6484846;22;20244;-84
2024/05/05 11:58:11;;;;;;;0.37;0.37;;;20.60;99.90;;;;;;6529578;22;20216;-84
2024/05/05 12:00:39;;;;;;;1.63;0.40;;;20.50;99.90;;;;;;6530027;21;20287;-83
2024/05/05 12:03:39;;;;;;;0.30;0.30;;;20.10;99.90;;;;;;6488678;22;20235;-84
2024/05/05 12:06:08;;;;;;;0.30;0.30;;;19.90;99.90;;;;;;6533382;22;20215;-84
2024/05/05 12:08:47;;;;;;;0.80;0.30;;;19.20;99.90;;;;;;6488414;22;20294;-83
2024/05/05 12:11:16;;;;;;;1.13;0.30;;;18.60;99.90;;;;;;6533362;22;20325;-84
2024/05/05 12:13:45;;;;;;;0.53;0.40;;;18.10;99.90;;;;;;6533462;22;20216;-84
2024/05/05 12:16:27;;;;;;;1.23;0.30;;;18.10;99.90;;;;;;6533335;22;20266;-84
2024/05/05 12:18:58;;;;;;;0.30;0.30;;;18.30;99.90;;;;;;6533152;22;20320;-84
2024/05/05 12:21:27;;;;;;;0.30;0.30;;;17.80;99.90;;;;;;6488473;22;20227;-84
2024/05/05 12:23:58;;;;;;;1.70;0.40;;;17.60;99.90;;;;;;6533350;22;20326;-84
2024/05/05 12:26:34;;;;;;;1.00;0.50;;;17.80;99.90;;;;;;6488209;22;20228;-84
2024/05/05 12:29:21;;;;;;;1.73;0.50;;;17.70;99.90;;;;;;6488709;22;20274;-84
2024/05/05 12:32:20;;;;;;;0.53;0.40;;;18.10;99.90;;;;;;6533862;22;20219;-84
2024/05/05 12:34:49;;;;;;;0.37;0.37;;;18.10;99.90;;;;;;6488647;22;20326;-85
2024/05/05 12:37:18;;;;;;;1.70;0.40;;;18.50;99.90;;;;;;6488230;22;20231;-84
2024/05/05 12:39:49;;;;;;;0.57;0.40;;;18.30;99.90;;;;;;6488636;22;20227;-85
2024/05/05 12:42:18;;;;;;;0.53;0.43;;;18.20;99.90;;;;;;6488620;22;20243;-84
2024/05/05 12:44:47;;;;;;;0.90;0.50;;;18.20;99.90;;;;;;6488749;22;20295;-86
2024/05/05 12:47:17;;;;;;;0.87;0.50;;;17.80;99.90;;;;;;6489670;22;20258;-85
2024/05/05 12:50:15;;;;;;;0.30;0.30;;;17.80;99.90;;;;;;6535154;22;20216;-87
2024/05/05 12:52:45;;;;;;;0.50;0.50;;;17.30;99.90;;;;;;6534359;22;20283;-85
2024/05/05 12:55:16;;;;;;;0.30;0.30;;;17.50;99.90;;;;;;6534906;22;20262;-86
2024/05/05 12:57:45;;;;;;;0.50;0.50;;;18.30;99.90;;;;;;6489904;22;20228;-86
2024/05/05 13:00:13;;;;;;;0.60;0.50;;;18.80;99.90;;;;;;6534408;21;20216;-85
2024/05/05 13:02:43;;;;;;;1.60;0.30;;;19.50;99.90;;;;;;6534620;22;20227;-87